Hattiesburg Bobby L Chain Municipal Airport
KHBG : now visible

Airfield :











YOU CAN JOIN US ON...

 
LOGIN :

Register | Disclaimer

   EN    FR    IT 

 









Legend :    VFR   Marginal VFR   IFR   Intensive IFR   Very Intensive IFR
Visi :
Ceiling :
>= 8 km
>= 3000ft
5 to 8 km
1000 to 3000 ft
1500m to 5 km
500 to 1000 ft
800 to 1500m
200 to 500 ft
< 800m
< 200 ft
Symbols :   Thunderstorms  Fog  Heavy snow  Heavy precipitations  Wind > 20 kt






- Airport Elevation : 151 ft


KHBG - Hattiesburg Bobby L Chain Municipal

CURRENT METAR :
  • 250353Z AUTO 35005KT 10SM BKN007 OVC015 16/14 A2998 RMK AO2 CIG 006V010 SLP150 T01560139

EXPIRED METARs :
  • 250253Z AUTO 32006KT 5SM BR OVC005 16/14 A2998 RMK AO2 SLP149 T01560144 50006
  • 250153Z AUTO 34004KT 5SM BR BKN006 OVC011 16/14 A2998 RMK AO2 CIG 005V010 SLP151 T01610144

TAF KHBG
Valid from the 25 at 00:00 until the 26 at 00:00 UTC


242321Z 2500/2524 32009KT P6SM OVC011
FM250800 00000KT 6SM BR OVC007
FM251100 00000KT 4SM BR OVC007
FM251200 00000KT 4SM BR OVC003
FM251500 00000KT P6SM BKN007 OVC015
KZHU FIR / North America



MET'MAP, your aeronautical weather chart ! - Copyright ORBIFLY December 2007 - Disclaimer

ORBIFLY MET'MAP TEAM :

Programming & Development : Alexandra Zaïnal
Concept & original design : Baudouin d'Aumeries
Assistance for programming : Marc-Olivier Méhu
Technical & hardware support : Manuel Goepfert

Contact : metmap@orbifly.com




SOURCES & CREDITS :

   NOAA       Earth
Advisory